Time;durP1;ratioP1;P1;durP2;ratioP2;P2;SDS_P1;SDS_P2;PMS_P1;PMS_P2;Temp;Humidity;BMP_temperature;BMP_pressure;BME280_temperature;BME280_humidity;BME280_pressure;Samples;Min_cycle;Max_cycle;Signal;HPM_P1;HPM_P2
2022/01/16 00:00:40;;;;;;;9.68;3.63;;;26.10;70.10;;;;;;5004690;28;20022;-68
2022/01/16 00:05:53;;;;;;;10.80;3.45;;;26.10;70.20;;;;;;4994011;28;20100;-68
2022/01/16 00:08:20;;;;;;;7.82;3.45;;;26.10;70.20;;;;;;4995095;28;20034;-68
2022/01/16 00:10:46;;;;;;;6.53;2.88;;;26.10;70.20;;;;;;5001064;28;20018;-68
2022/01/16 00:13:13;;;;;;;10.05;4.35;;;26.10;70.10;;;;;;5000251;28;20030;-68
2022/01/16 00:15:44;;;;;;;9.77;3.22;;;26.10;70.20;;;;;;4996871;28;20015;-68
2022/01/16 00:18:21;;;;;;;9.48;3.28;;;26.10;70.20;;;;;;4998913;28;20028;-68
2022/01/16 00:20:50;;;;;;;8.95;3.80;;;26.10;70.30;;;;;;4996463;28;20056;-68
2022/01/16 00:23:24;;;;;;;10.40;4.25;;;26.10;70.30;;;;;;4995281;28;20072;-69
2022/01/16 00:25:53;;;;;;;9.75;3.70;;;26.10;70.20;;;;;;4991635;28;20062;-68
2022/01/16 00:28:20;;;;;;;7.63;3.20;;;26.10;70.20;;;;;;5003191;28;20030;-69
2022/01/16 00:30:49;;;;;;;7.82;3.50;;;26.10;70.20;;;;;;4998422;28;20018;-68
2022/01/16 00:33:16;;;;;;;12.30;4.05;;;26.10;70.20;;;;;;4998087;28;20041;-68
2022/01/16 00:35:43;;;;;;;9.85;4.50;;;26.10;70.10;;;;;;5016531;28;20113;-69
2022/01/16 00:38:10;;;;;;;12.63;3.20;;;26.10;70.00;;;;;;4999295;28;20038;-68
2022/01/16 00:40:37;;;;;;;10.02;4.00;;;26.10;69.90;;;;;;4997221;28;20080;-69
2022/01/16 00:43:04;;;;;;;8.02;2.95;;;26.10;69.80;;;;;;4999076;28;20026;-69
2022/01/16 00:45:34;;;;;;;8.20;3.38;;;26.10;69.70;;;;;;4995743;28;20030;-67
2022/01/16 00:48:07;;;;;;;9.30;3.40;;;26.10;69.60;;;;;;5000083;28;20030;-69
2022/01/16 00:50:35;;;;;;;7.40;3.60;;;26.00;69.50;;;;;;5000809;28;20025;-67
2022/01/16 00:53:03;;;;;;;7.43;3.45;;;26.00;69.40;;;;;;4998371;28;20030;-70
2022/01/16 00:55:29;;;;;;;6.43;2.90;;;26.10;69.40;;;;;;5003200;28;20097;-68
2022/01/16 00:57:56;;;;;;;18.98;4.15;;;26.00;69.20;;;;;;4997681;28;20023;-67
2022/01/16 01:00:22;;;;;;;9.90;3.03;;;26.00;69.10;;;;;;4999025;28;20472;-67
2022/01/16 01:02:51;;;;;;;9.75;3.78;;;26.00;69.10;;;;;;4997912;28;20054;-67
2022/01/16 01:05:17;;;;;;;9.48;3.63;;;26.00;69.10;;;;;;4999141;28;20038;-67
2022/01/16 01:07:44;;;;;;;10.45;4.10;;;26.00;69.10;;;;;;4996133;28;20018;-67
2022/01/16 01:10:12;;;;;;;11.65;4.18;;;26.00;69.00;;;;;;5012614;28;20808;-67
2022/01/16 01:12:53;;;;;;;7.55;2.72;;;26.00;69.00;;;;;;5003400;28;20523;-68
2022/01/16 01:15:21;;;;;;;13.38;3.33;;;26.00;68.90;;;;;;5005724;28;20022;-69
2022/01/16 01:17:49;;;;;;;11.05;3.72;;;26.00;68.90;;;;;;4994546;28;20090;-67
2022/01/16 01:20:19;;;;;;;9.95;3.05;;;25.90;68.80;;;;;;5003242;28;20014;-67
2022/01/16 01:22:48;;;;;;;7.78;3.60;;;25.90;68.80;;;;;;5004106;28;20026;-69
2022/01/16 01:25:16;;;;;;;6.95;2.65;;;25.90;68.80;;;;;;4998793;28;20036;-69
2022/01/16 01:27:44;;;;;;;8.60;3.47;;;25.90;68.90;;;;;;5001238;28;20026;-67
2022/01/16 01:30:18;;;;;;;11.85;4.13;;;25.90;68.90;;;;;;5006402;28;20076;-68
2022/01/16 01:32:47;;;;;;;7.95;2.90;;;25.90;68.90;;;;;;5003100;28;20581;-68
2022/01/16 01:35:15;;;;;;;10.25;4.13;;;25.90;69.00;;;;;;5000390;28;20117;-68
2022/01/16 01:37:43;;;;;;;8.65;3.45;;;25.90;69.00;;;;;;5000352;28;20415;-67
2022/01/16 01:40:14;;;;;;;7.93;3.00;;;25.90;69.80;;;;;;4997938;28;20135;-69
2022/01/16 01:42:51;;;;;;;7.57;3.20;;;25.90;69.10;;;;;;4996802;28;20027;-68
2022/01/16 01:51:16;;;;;;;30.85;4.93;;;25.90;69.50;;;;;;5001847;28;20076;-67
2022/01/16 01:53:43;;;;;;;22.33;4.35;;;25.90;69.70;;;;;;5001430;28;20021;-68
2022/01/16 01:56:13;;;;;;;9.05;3.80;;;25.90;69.70;;;;;;5000681;28;20104;-68
2022/01/16 01:58:39;;;;;;;10.15;3.35;;;25.80;69.60;;;;;;5003088;28;20018;-68
2022/01/16 02:01:06;;;;;;;13.25;3.47;;;25.80;69.60;;;;;;5000937;28;20542;-68
2022/01/16 02:03:42;;;;;;;5.28;3.00;;;25.80;69.50;;;;;;5001612;28;20088;-68
2022/01/16 02:06:17;;;;;;;6.68;3.60;;;25.80;69.50;;;;;;4997454;28;20500;-67
2022/01/16 02:08:47;;;;;;;12.77;3.67;;;25.80;69.50;;;;;;5001365;28;20022;-68
2022/01/16 02:11:16;;;;;;;8.65;3.30;;;25.80;69.50;;;;;;5003132;28;20072;-68
2022/01/16 02:13:50;;;;;;;13.90;3.20;;;25.80;69.40;;;;;;5003675;28;20022;-68
2022/01/16 02:30:54;;;;;;;7.22;2.92;;;25.80;69.80;;;;;;4994698;28;20033;-68
2022/01/16 02:35:54;;;;;;;6.32;3.35;;;25.70;70.30;;;;;;5001264;28;20073;-68
2022/01/16 02:38:21;;;;;;;6.80;3.05;;;25.80;70.60;;;;;;5001539;28;20026;-68
2022/01/16 02:40:56;;;;;;;6.00;3.10;;;25.70;70.70;;;;;;5000536;28;20040;-68
2022/01/16 02:43:30;;;;;;;9.32;3.45;;;25.70;70.80;;;;;;5001502;28;20037;-68
2022/01/16 02:48:41;;;;;;;14.60;5.30;;;25.70;71.80;;;;;;5001735;28;20342;-68
2022/01/16 02:51:08;;;;;;;8.02;4.03;;;25.70;71.10;;;;;;5001623;28;20025;-68
2022/01/16 02:53:34;;;;;;;12.57;4.03;;;25.70;71.10;;;;;;5002147;28;20119;-68
2022/01/16 02:56:01;;;;;;;13.30;3.45;;;25.70;71.20;;;;;;4998075;28;20037;-68
2022/01/16 02:58:28;;;;;;;11.93;4.60;;;25.70;71.20;;;;;;5000177;28;20478;-68
2022/01/16 03:00:55;;;;;;;15.00;4.55;;;25.70;71.30;;;;;;4999728;28;20025;-68
2022/01/16 03:03:24;;;;;;;16.58;4.53;;;25.60;71.30;;;;;;4999883;28;20034;-69
2022/01/16 03:05:51;;;;;;;10.45;3.65;;;25.60;71.40;;;;;;5006446;28;20081;-69
2022/01/16 03:08:17;;;;;;;15.18;4.35;;;25.60;71.50;;;;;;4998489;28;20953;-68
2022/01/16 03:11:09;;;;;;;14.65;4.65;;;25.60;71.40;;;;;;5001511;28;20035;-69
2022/01/16 03:13:39;;;;;;;16.20;4.13;;;25.60;71.30;;;;;;5001766;28;20037;-68
2022/01/16 03:16:05;;;;;;;21.75;5.53;;;25.60;71.40;;;;;;5000592;28;20022;-68
2022/01/16 03:23:43;;;;;;;24.88;4.88;;;25.60;72.00;;;;;;4999284;28;20506;-68
2022/01/16 03:26:11;;;;;;;18.30;4.30;;;25.60;71.90;;;;;;4998118;28;20042;-68
2022/01/16 03:28:37;;;;;;;19.55;5.20;;;25.60;71.80;;;;;;4999977;28;20019;-67
2022/01/16 03:31:04;;;;;;;21.83;5.65;;;25.60;71.60;;;;;;5003772;28;20109;-68
2022/01/16 03:33:30;;;;;;;11.65;3.35;;;25.60;71.60;;;;;;4998709;28;20696;-68
2022/01/16 03:35:57;;;;;;;14.15;4.18;;;25.60;71.70;;;;;;4996694;28;20018;-68
2022/01/16 03:38:23;;;;;;;15.43;4.03;;;25.60;71.80;;;;;;5001519;28;20041;-67
2022/01/16 03:40:50;;;;;;;15.80;4.05;;;25.60;71.90;;;;;;4999818;28;20416;-68
2022/01/16 03:43:16;;;;;;;24.60;4.72;;;25.50;71.90;;;;;;4999063;28;20014;-68
2022/01/16 03:45:45;;;;;;;12.70;4.43;;;25.50;72.00;;;;;;4999588;28;20057;-68
2022/01/16 03:48:13;;;;;;;23.92;5.03;;;25.60;72.20;;;;;;4997723;28;20484;-68
2022/01/16 03:50:39;;;;;;;23.05;5.28;;;25.50;72.20;;;;;;4996681;28;20034;-68
2022/01/16 03:53:06;;;;;;;46.20;7.22;;;25.50;72.20;;;;;;4998968;28;20527;-68
2022/01/16 03:55:33;;;;;;;23.30;4.68;;;25.50;72.30;;;;;;5001573;28;20109;-68
2022/01/16 03:58:00;;;;;;;24.25;5.35;;;25.50;72.40;;;;;;4997001;28;20069;-68
2022/01/16 04:00:26;;;;;;;33.53;5.28;;;25.50;72.40;;;;;;4998353;28;20026;-68
2022/01/16 04:02:54;;;;;;;66.00;8.07;;;25.50;72.30;;;;;;4996925;28;20070;-68
2022/01/16 04:05:20;;;;;;;70.05;8.15;;;25.50;72.40;;;;;;5001593;28;20026;-68
2022/01/16 04:07:47;;;;;;;50.65;6.47;;;25.50;72.80;;;;;;4999643;28;20011;-68
2022/01/16 04:10:14;;;;;;;30.58;5.28;;;25.60;73.20;;;;;;5000164;28;20018;-68
2022/01/16 04:12:41;;;;;;;18.83;4.35;;;25.50;73.10;;;;;;4997156;28;20458;-69
2022/01/16 04:17:44;;;;;;;14.30;3.27;;;25.50;73.30;;;;;;4994977;28;20053;-68
2022/01/16 04:20:15;;;;;;;24.02;4.28;;;25.50;73.20;;;;;;4998512;28;20099;-68
2022/01/16 04:22:45;;;;;;;25.27;4.28;;;25.50;73.20;;;;;;4996374;28;20500;-68
2022/01/16 04:25:12;;;;;;;11.80;3.80;;;25.40;73.10;;;;;;4998052;28;20398;-68
2022/01/16 04:27:38;;;;;;;9.10;3.05;;;25.40;73.00;;;;;;4996985;28;20025;-67
2022/01/16 04:30:06;;;;;;;10.55;2.80;;;25.40;72.80;;;;;;4998546;28;20026;-68
2022/01/16 04:32:32;;;;;;;11.20;3.50;;;25.40;72.60;;;;;;5000928;28;20057;-69
2022/01/16 04:34:59;;;;;;;14.00;3.33;;;25.40;72.40;;;;;;4995937;28;20018;-68
2022/01/16 04:37:25;;;;;;;12.25;3.05;;;25.40;72.20;;;;;;4998009;28;20478;-68
2022/01/16 04:39:59;;;;;;;13.23;3.65;;;25.40;71.90;;;;;;4996617;28;20027;-69
2022/01/16 04:45:11;;;;;;;11.88;3.90;;;25.40;71.20;;;;;;5000300;28;20142;-68
2022/01/16 04:47:37;;;;;;;7.18;2.78;;;25.40;70.90;;;;;;4998851;28;20026;-68
2022/01/16 04:50:04;;;;;;;5.10;2.38;;;25.40;70.70;;;;;;5006640;28;20018;-68
2022/01/16 04:52:31;;;;;;;7.10;2.20;;;25.40;70.40;;;;;;5000986;28;20477;-69
2022/01/16 04:54:57;;;;;;;3.97;2.10;;;25.40;70.30;;;;;;5005794;28;20022;-68
2022/01/16 04:57:24;;;;;;;7.72;2.65;;;25.30;70.30;;;;;;4996519;28;20023;-69
2022/01/16 04:59:50;;;;;;;6.07;2.15;;;25.40;70.50;;;;;;5006329;28;20022;-68
2022/01/16 05:02:17;;;;;;;4.05;1.70;;;25.30;70.60;;;;;;4999723;28;20489;-68
2022/01/16 05:04:43;;;;;;;8.68;2.78;;;25.30;70.80;;;;;;5000885;28;20422;-67
2022/01/16 05:07:09;;;;;;;5.00;2.22;;;25.30;70.90;;;;;;5002886;28;20030;-69
2022/01/16 05:09:36;;;;;;;11.05;2.25;;;25.30;71.00;;;;;;5002515;28;20105;-69
2022/01/16 05:12:10;;;;;;;5.85;2.42;;;25.30;71.10;;;;;;5005688;28;20081;-69
2022/01/16 05:17:21;;;;;;;14.57;3.13;;;25.40;71.30;;;;;;4996370;28;20459;-68
2022/01/16 05:19:47;;;;;;;12.15;2.83;;;25.40;71.30;;;;;;5000185;28;20026;-68
2022/01/16 05:22:14;;;;;;;10.95;2.63;;;25.40;71.30;;;;;;5002876;28;20072;-68
2022/01/16 05:24:40;;;;;;;12.48;2.40;;;25.40;71.20;;;;;;5001206;28;20022;-68
2022/01/16 05:27:07;;;;;;;6.57;2.20;;;25.40;71.10;;;;;;4988544;28;20398;-68
2022/01/16 05:29:33;;;;;;;25.05;4.15;;;25.40;70.90;;;;;;4991986;28;20445;-69
2022/01/16 05:32:00;;;;;;;21.17;6.38;;;25.40;70.70;;;;;;4988017;28;20128;-68
2022/01/16 05:34:29;;;;;;;29.67;14.57;;;25.40;70.80;;;;;;4994956;28;20029;-69
2022/01/16 05:36:55;;;;;;;16.25;12.65;;;25.40;70.80;;;;;;4988085;28;20512;-70
2022/01/16 05:39:21;;;;;;;16.45;7.70;;;25.40;70.70;;;;;;4990568;28;20025;-69
2022/01/16 05:41:48;;;;;;;9.85;4.53;;;25.40;70.40;;;;;;4987538;28;20101;-69
2022/01/16 05:44:14;;;;;;;30.88;5.80;;;25.40;70.00;;;;;;4986857;28;20018;-69
2022/01/16 05:46:41;;;;;;;27.48;4.22;;;25.40;69.90;;;;;;4992431;28;20033;-69
2022/01/16 05:49:27;;;;;;;8.65;3.00;;;25.40;70.00;;;;;;4990501;28;20018;-69
2022/01/16 05:51:54;;;;;;;24.92;3.05;;;25.40;69.90;;;;;;4989915;28;20076;-68
2022/01/16 05:54:20;;;;;;;40.13;4.70;;;25.40;69.60;;;;;;4989230;28;20622;-69
2022/01/16 05:56:47;;;;;;;30.05;3.83;;;25.40;69.60;;;;;;4987811;28;20527;-68
2022/01/16 05:59:13;;;;;;;19.85;2.65;;;25.40;69.90;;;;;;4989380;28;20381;-68
2022/01/16 06:01:40;;;;;;;18.08;2.88;;;25.50;70.10;;;;;;4990994;28;20137;-68
2022/01/16 06:04:06;;;;;;;11.88;3.28;;;25.50;70.10;;;;;;4990380;28;20464;-68
2022/01/16 06:06:33;;;;;;;8.65;2.50;;;25.50;69.90;;;;;;4987165;28;20551;-68
2022/01/16 06:08:59;;;;;;;10.23;2.42;;;25.50;69.80;;;;;;4990520;28;20031;-68
2022/01/16 06:11:26;;;;;;;13.57;2.58;;;25.60;69.80;;;;;;4988583;28;20886;-68
2022/01/16 06:13:52;;;;;;;10.90;2.00;;;25.60;69.70;;;;;;4989335;28;20030;-68
2022/01/16 06:16:19;;;;;;;7.10;2.60;;;25.60;69.60;;;;;;4989589;28;20026;-68
2022/01/16 06:18:45;;;;;;;5.40;2.42;;;25.70;69.40;;;;;;4990030;28;20831;-68
2022/01/16 06:21:12;;;;;;;5.45;2.40;;;25.60;69.00;;;;;;4989291;28;20030;-68
2022/01/16 06:23:38;;;;;;;6.47;1.80;;;25.70;68.80;;;;;;4998632;28;20366;-67
2022/01/16 06:26:04;;;;;;;6.93;1.92;;;25.70;68.60;;;;;;4986284;28;21090;-67
2022/01/16 06:28:31;;;;;;;3.90;2.40;;;25.70;68.40;;;;;;4989332;28;20018;-68
2022/01/16 06:30:59;;;;;;;6.85;2.13;;;25.70;68.30;;;;;;4987336;28;20023;-69
2022/01/16 06:33:26;;;;;;;8.27;2.00;;;25.80;68.30;;;;;;4988641;28;20484;-68
2022/01/16 06:36:32;;;;;;;4.85;2.00;;;25.80;68.10;;;;;;4983564;28;20101;-69
2022/01/16 06:39:18;;;;;;;;;;;25.80;68.00;;;;;;4987796;28;20053;-69
2022/01/16 06:41:44;;;;;;;43.47;38.88;;;25.80;67.70;;;;;;4987040;28;19906;-70
2022/01/16 06:44:10;;;;;;;69.82;62.63;;;25.80;67.70;;;;;;4982788;28;20502;-70
2022/01/16 06:46:38;;;;;;;54.28;48.60;;;25.90;67.80;;;;;;4984578;28;21098;-70
2022/01/16 06:49:05;;;;;;;26.73;20.33;;;25.90;67.70;;;;;;4986661;28;20053;-68
2022/01/16 06:51:31;;;;;;;25.20;17.00;;;25.90;67.60;;;;;;4987062;28;20029;-67
2022/01/16 06:53:59;;;;;;;24.20;7.32;;;25.90;67.50;;;;;;4984789;28;20069;-68
2022/01/16 06:56:26;;;;;;;18.92;5.72;;;25.90;67.60;;;;;;4988668;28;20025;-69
2022/01/16 06:58:52;;;;;;;13.75;4.18;;;26.00;67.80;;;;;;4985498;28;20026;-68
2022/01/16 07:01:19;;;;;;;10.23;2.83;;;26.00;67.80;;;;;;4987305;28;20057;-70
2022/01/16 07:03:45;;;;;;;11.07;2.28;;;26.00;67.70;;;;;;4984923;28;20026;-69
2022/01/16 07:06:12;;;;;;;13.85;4.35;;;26.00;67.60;;;;;;4984694;28;20038;-69
2022/01/16 07:08:41;;;;;;;13.85;9.98;;;26.00;67.50;;;;;;4985108;28;20465;-68
2022/01/16 07:11:08;;;;;;;19.35;11.98;;;26.10;67.70;;;;;;4982241;28;20034;-68
2022/01/16 07:13:35;;;;;;;15.50;7.28;;;26.10;67.60;;;;;;4987972;28;20030;-68
2022/01/16 07:16:01;;;;;;;10.05;4.40;;;26.10;67.30;;;;;;4981452;28;20105;-68
2022/01/16 07:18:28;;;;;;;5.55;2.75;;;26.10;67.20;;;;;;4986109;28;20052;-69
2022/01/16 07:20:55;;;;;;;5.60;1.95;;;26.10;67.00;;;;;;4986185;28;20065;-69
2022/01/16 07:23:22;;;;;;;6.05;2.55;;;26.10;67.10;;;;;;4983816;28;20366;-69
2022/01/16 07:25:49;;;;;;;5.50;2.20;;;26.10;67.10;;;;;;4983614;28;20104;-68
2022/01/16 07:28:16;;;;;;;4.78;2.10;;;26.10;67.10;;;;;;4984092;28;20022;-69
2022/01/16 07:30:43;;;;;;;8.27;2.90;;;26.10;67.30;;;;;;4983697;28;20167;-70
2022/01/16 07:33:10;;;;;;;9.15;2.83;;;26.10;67.70;;;;;;5015888;28;20429;-70
2022/01/16 07:35:37;;;;;;;5.88;2.05;;;26.10;68.00;;;;;;4985305;28;20026;-69
2022/01/16 07:38:06;;;;;;;15.57;5.95;;;26.10;68.30;;;;;;4983102;28;20031;-70
2022/01/16 07:40:33;;;;;;;13.70;9.27;;;26.10;68.60;;;;;;4984673;28;20029;-70
2022/01/16 07:43:00;;;;;;;12.13;7.85;;;26.20;69.00;;;;;;4983832;28;20034;-69
2022/01/16 07:45:27;;;;;;;8.32;5.07;;;26.20;69.10;;;;;;4985454;28;20046;-70
2022/01/16 07:47:54;;;;;;;11.70;3.28;;;26.20;69.00;;;;;;4987472;28;20089;-71
2022/01/16 07:51:00;;;;;;;5.22;2.65;;;26.20;68.90;;;;;;4983374;28;20477;-70
2022/01/16 07:53:26;;;;;;;8.68;2.80;;;26.20;68.80;;;;;;4987972;28;20132;-70
2022/01/16 07:55:52;;;;;;;5.68;2.80;;;26.20;68.60;;;;;;4985680;28;20049;-69
2022/01/16 07:58:23;;;;;;;11.15;2.65;;;26.20;68.50;;;;;;4992261;28;20019;-70
2022/01/16 08:00:49;;;;;;;14.13;3.47;;;26.20;68.40;;;;;;4997267;28;20038;-70
2022/01/16 08:03:16;;;;;;;6.32;2.50;;;26.30;68.10;;;;;;4984550;28;20045;-69
2022/01/16 08:05:42;;;;;;;10.32;2.72;;;26.30;67.70;;;;;;4985001;28;20834;-69
2022/01/16 08:08:09;;;;;;;6.22;2.42;;;26.40;67.40;;;;;;4986315;28;20069;-69
2022/01/16 08:10:35;;;;;;;4.93;2.13;;;26.40;67.00;;;;;;4985649;28;20425;-69
2022/01/16 08:13:02;;;;;;;6.88;2.13;;;26.40;66.40;;;;;;4982185;28;20018;-70
2022/01/16 08:15:28;;;;;;;7.68;4.50;;;26.50;66.10;;;;;;4986728;28;20038;-69
2022/01/16 08:17:55;;;;;;;13.75;4.93;;;26.50;65.70;;;;;;4984366;28;20065;-69
2022/01/16 08:20:22;;;;;;;13.90;6.75;;;26.50;65.30;;;;;;4983075;28;20018;-69
2022/01/16 08:22:48;;;;;;;17.33;5.90;;;26.60;65.10;;;;;;4985409;28;20494;-69
2022/01/16 08:25:51;;;;;;;15.98;5.03;;;26.60;64.50;;;;;;4984235;28;20142;-69
2022/01/16 08:28:18;;;;;;;9.50;2.88;;;26.70;64.00;;;;;;4985015;28;20019;-69
2022/01/16 08:30:45;;;;;;;13.20;2.53;;;26.80;63.90;;;;;;4985937;28;20851;-69
2022/01/16 08:33:12;;;;;;;22.50;3.20;;;26.80;63.60;;;;;;4983021;28;20040;-69
2022/01/16 08:35:39;;;;;;;12.23;1.92;;;26.90;63.20;;;;;;4984423;28;20018;-68
2022/01/16 08:38:05;;;;;;;12.18;2.58;;;26.90;62.40;;;;;;4981986;28;20117;-69
2022/01/16 08:40:32;;;;;;;15.68;3.00;;;26.90;62.50;;;;;;4989108;28;20021;-69
2022/01/16 08:42:58;;;;;;;39.28;3.88;;;26.90;64.20;;;;;;4983294;28;20478;-69
2022/01/16 08:45:25;;;;;;;78.10;16.17;;;27.00;65.00;;;;;;4984112;28;20464;-69
2022/01/16 08:47:51;;;;;;;37.97;9.52;;;27.00;64.90;;;;;;4983684;28;20058;-69
2022/01/16 08:50:18;;;;;;;22.85;5.07;;;27.10;65.10;;;;;;4981034;28;20085;-69
2022/01/16 08:52:45;;;;;;;40.13;5.85;;;27.10;64.70;;;;;;4986390;28;20019;-69
2022/01/16 08:55:12;;;;;;;15.40;2.60;;;27.10;64.00;;;;;;4986846;28;20478;-69
2022/01/16 08:57:40;;;;;;;8.30;2.60;;;27.10;63.50;;;;;;5002463;28;20037;-70
2022/01/16 09:00:09;;;;;;;5.05;2.55;;;27.10;62.80;;;;;;4986975;28;20023;-69
2022/01/16 09:02:36;;;;;;;5.50;3.55;;;27.10;62.60;;;;;;4990009;28;20081;-69
2022/01/16 09:05:03;;;;;;;6.55;4.40;;;27.20;62.60;;;;;;4987294;28;20489;-70
2022/01/16 09:07:32;;;;;;;9.57;3.20;;;27.10;62.40;;;;;;4988301;28;20042;-69
2022/01/16 09:10:00;;;;;;;7.80;2.08;;;27.20;62.40;;;;;;4985067;28;20100;-69
2022/01/16 09:12:29;;;;;;;8.85;2.05;;;27.30;62.50;;;;;;4982210;28;20058;-69
2022/01/16 09:14:56;;;;;;;17.75;3.20;;;27.30;62.80;;;;;;5017640;28;20405;-69
2022/01/16 09:17:23;;;;;;;4.18;1.75;;;27.30;63.30;;;;;;4984154;28;20069;-70
2022/01/16 09:19:50;;;;;;;9.88;3.28;;;27.30;63.80;;;;;;4999934;28;21247;-69
2022/01/16 09:22:16;;;;;;;5.47;1.95;;;27.30;64.00;;;;;;4995263;28;20029;-71
2022/01/16 09:24:43;;;;;;;8.27;1.95;;;27.40;63.80;;;;;;4993170;28;20034;-70
2022/01/16 09:27:09;;;;;;;6.45;1.80;;;27.40;63.90;;;;;;4995694;28;20101;-71
2022/01/16 09:29:36;;;;;;;5.57;2.13;;;27.50;63.50;;;;;;5000112;28;20616;-72
2022/01/16 09:32:04;;;;;;;13.88;2.00;;;27.50;62.70;;;;;;5002815;28;20405;-70
2022/01/16 09:34:31;;;;;;;13.60;1.77;;;27.50;62.60;;;;;;5001834;28;20026;-72
2022/01/16 09:36:57;;;;;;;6.18;1.50;;;27.60;62.30;;;;;;5000609;28;21034;-70
2022/01/16 09:39:24;;;;;;;9.32;1.90;;;27.60;61.70;;;;;;4999430;28;20050;-69
2022/01/16 09:41:51;;;;;;;11.23;2.72;;;27.60;61.00;;;;;;5000365;28;20029;-69
2022/01/16 09:44:18;;;;;;;8.65;3.40;;;27.70;60.90;;;;;;5001933;28;20061;-70
2022/01/16 09:46:44;;;;;;;5.65;2.60;;;27.70;60.40;;;;;;4998529;28;20084;-68
2022/01/16 09:49:11;;;;;;;6.78;3.53;;;27.80;59.70;;;;;;5004673;28;20388;-68
2022/01/16 09:51:38;;;;;;;7.60;4.50;;;27.80;59.70;;;;;;4994893;28;20997;-70
2022/01/16 09:54:05;;;;;;;7.63;4.85;;;27.80;59.40;;;;;;5000650;28;20026;-72
2022/01/16 09:56:32;;;;;;;9.88;5.57;;;27.80;59.70;;;;;;4995074;28;20027;-70
2022/01/16 09:58:58;;;;;;;3.75;2.70;;;27.90;59.80;;;;;;5000625;28;20570;-70
2022/01/16 10:01:25;;;;;;;3.13;1.88;;;27.90;59.70;;;;;;5001721;28;20010;-71
2022/01/16 10:03:51;;;;;;;3.60;1.40;;;27.90;59.30;;;;;;5003531;28;20080;-69
2022/01/16 10:06:24;;;;;;;23.48;3.92;;;28.00;59.30;;;;;;5001197;28;20049;-69
2022/01/16 10:08:54;;;;;;;11.93;1.90;;;28.00;59.10;;;;;;4998084;28;20132;-69
2022/01/16 10:11:20;;;;;;;4.40;1.40;;;28.00;58.60;;;;;;5007569;28;20056;-69
2022/01/16 10:14:16;;;;;;;3.05;1.98;;;28.00;58.10;;;;;;4999371;28;20049;-71
2022/01/16 10:16:42;;;;;;;3.00;1.10;;;28.00;58.70;;;;;;5002220;28;20095;-71
2022/01/16 10:19:26;;;;;;;26.20;4.72;;;28.10;59.50;;;;;;4999755;28;20563;-71
2022/01/16 10:22:01;;;;;;;4.60;3.58;;;28.10;59.50;;;;;;5000217;28;20037;-69
2022/01/16 10:24:30;;;;;;;2.92;1.83;;;28.20;58.90;;;;;;5000487;28;20032;-70
2022/01/16 10:27:08;;;;;;;3.25;1.73;;;28.20;58.60;;;;;;5001732;28;20022;-70
2022/01/16 10:29:59;;;;;;;2.25;1.23;;;28.20;58.60;;;;;;4998984;28;20026;-69
2022/01/16 10:32:28;;;;;;;2.90;1.45;;;28.20;58.60;;;;;;5029695;28;20029;-70
2022/01/16 10:35:19;;;;;;;2.72;1.15;;;28.20;57.60;;;;;;4995688;28;20045;-75
2022/01/16 10:37:48;;;;;;;2.08;1.10;;;28.30;56.50;;;;;;4997093;28;20088;-71
2022/01/16 10:40:24;;;;;;;7.47;1.38;;;28.30;55.50;;;;;;4997824;28;20018;-70
2022/01/16 10:42:57;;;;;;;8.23;1.45;;;28.30;55.30;;;;;;5014557;28;20580;-77
2022/01/16 10:45:31;;;;;;;18.08;2.00;;;28.40;55.30;;;;;;4987200;28;20473;-72
2022/01/16 10:48:00;;;;;;;2.63;1.83;;;28.40;54.70;;;;;;4987978;28;20038;-72
2022/01/16 10:50:42;;;;;;;6.07;1.45;;;28.50;54.90;;;;;;4991919;28;20744;-71
2022/01/16 10:53:17;;;;;;;2.58;1.25;;;28.60;55.20;;;;;;4989921;28;20050;-71
2022/01/16 10:55:54;;;;;;;3.13;0.80;;;28.60;54.80;;;;;;4990721;28;20068;-72
2022/01/16 10:58:24;;;;;;;3.83;0.80;;;28.70;53.30;;;;;;4986632;28;20073;-73
2022/01/16 11:01:00;;;;;;;5.25;1.35;;;28.70;53.20;;;;;;4986095;28;20018;-73
2022/01/16 11:03:29;;;;;;;4.38;0.88;;;28.70;52.80;;;;;;4987498;28;20046;-73
2022/01/16 11:05:56;;;;;;;4.60;1.30;;;28.80;53.30;;;;;;4990937;28;20030;-76
2022/01/16 11:08:25;;;;;;;3.42;1.08;;;28.80;52.90;;;;;;4987976;28;20880;-71
2022/01/16 11:10:58;;;;;;;15.25;3.33;;;28.80;53.10;;;;;;4987639;28;20053;-72
2022/01/16 11:13:29;;;;;;;3.63;0.95;;;28.80;53.30;;;;;;4990310;28;20026;-71
2022/01/16 11:15:58;;;;;;;15.13;3.67;;;28.80;52.70;;;;;;4987004;28;20119;-72
2022/01/16 11:18:26;;;;;;;5.00;1.20;;;28.90;52.50;;;;;;4985629;28;20034;-71
2022/01/16 11:26:01;;;;;;;2.00;0.80;;;29.00;51.80;;;;;;4996056;28;20531;-74
2022/01/16 11:28:28;;;;;;;2.42;0.60;;;29.00;51.50;;;;;;4991201;28;20018;-73
2022/01/16 11:30:59;;;;;;;1.08;0.50;;;29.00;51.40;;;;;;4997081;28;20053;-76
2022/01/16 11:33:28;;;;;;;3.60;1.55;;;29.00;51.40;;;;;;4998052;28;20103;-76
2022/01/16 11:35:56;;;;;;;2.28;1.00;;;29.00;51.20;;;;;;4997093;28;20022;-72
2022/01/16 11:38:45;;;;;;;2.42;1.23;;;29.00;51.10;;;;;;4990464;28;20512;-73
2022/01/16 11:41:16;;;;;;;5.03;1.00;;;29.00;51.30;;;;;;4996725;28;20431;-76
2022/01/16 11:43:47;;;;;;;4.78;1.25;;;29.00;51.10;;;;;;4996550;28;20109;-76
2022/01/16 11:46:27;;;;;;;2.22;1.05;;;29.20;51.30;;;;;;4997118;28;20044;-73
2022/01/16 11:49:03;;;;;;;3.38;1.92;;;29.20;51.00;;;;;;4993075;28;20072;-72
2022/01/16 11:51:35;;;;;;;2.85;1.40;;;29.20;51.20;;;;;;4999392;28;20096;-77
2022/01/16 11:54:06;;;;;;;1.55;0.90;;;29.10;50.40;;;;;;4997029;28;20026;-77
2022/01/16 11:56:41;;;;;;;4.72;1.05;;;29.10;50.90;;;;;;4997313;28;20093;-72
2022/01/16 11:59:36;;;;;;;3.83;1.65;;;29.20;50.60;;;;;;4992899;28;20034;-74
2022/01/16 12:02:09;;;;;;;7.80;4.55;;;29.20;52.00;;;;;;4994309;28;20056;-76
2022/01/16 12:04:38;;;;;;;2.50;1.05;;;29.20;51.20;;;;;;4997124;28;20050;-75
2022/01/16 12:07:34;;;;;;;1.88;0.93;;;29.30;51.80;;;;;;4997320;28;20892;-73
2022/01/16 12:10:01;;;;;;;3.25;1.00;;;29.30;50.80;;;;;;4984262;28;20371;-79
2022/01/16 12:12:27;;;;;;;3.45;0.90;;;29.20;52.40;;;;;;5002078;28;20026;-73
2022/01/16 12:14:56;;;;;;;2.25;0.80;;;29.20;52.50;;;;;;4997536;28;20133;-73
2022/01/16 12:17:49;;;;;;;1.83;0.68;;;29.20;52.60;;;;;;4994540;28;20019;-72
2022/01/16 12:20:18;;;;;;;1.27;0.93;;;29.20;51.10;;;;;;4997202;28;20026;-77
2022/01/16 12:22:57;;;;;;;1.65;0.90;;;29.20;50.80;;;;;;4999019;28;20017;-73
2022/01/16 12:25:30;;;;;;;1.15;0.80;;;29.10;51.70;;;;;;5003022;28;20148;-72
2022/01/16 12:28:09;;;;;;;2.40;1.58;;;29.10;51.90;;;;;;4993061;28;20481;-72
2022/01/16 12:30:51;;;;;;;1.83;0.90;;;29.20;52.00;;;;;;4992508;28;20098;-73
2022/01/16 12:33:37;;;;;;;3.85;2.78;;;29.30;52.60;;;;;;4997615;28;20030;-71
2022/01/16 12:36:12;;;;;;;13.10;2.53;;;29.30;54.30;;;;;;4998934;28;20022;-71
2022/01/16 12:38:42;;;;;;;;;;;29.30;54.20;;;;;;4996844;28;20022;-72
2022/01/16 12:41:22;;;;;;;3.50;1.50;;;29.30;54.20;;;;;;4996994;28;20288;-71
2022/01/16 12:43:55;;;;;;;3.83;1.05;;;29.30;54.30;;;;;;5003852;28;20026;-72
2022/01/16 12:46:30;;;;;;;3.05;1.05;;;29.40;54.40;;;;;;4982090;28;20516;-73
2022/01/16 12:48:57;;;;;;;;;;;29.40;54.50;;;;;;4982074;28;20053;-72
2022/01/16 12:51:27;;;;;;;1.48;0.73;;;29.40;53.90;;;;;;4983312;28;19913;-73
2022/01/16 12:54:05;;;;;;;3.30;0.93;;;29.40;53.00;;;;;;4983020;28;20022;-72
2022/01/16 12:56:40;;;;;;;11.10;2.40;;;29.40;52.90;;;;;;4987222;28;20015;-73
2022/01/16 12:59:18;;;;;;;5.70;1.67;;;29.40;52.80;;;;;;4985119;28;20496;-72
2022/01/16 13:01:54;;;;;;;3.13;0.85;;;29.40;53.10;;;;;;4982585;28;20516;-72
2022/01/16 13:04:29;;;;;;;3.22;1.40;;;29.50;53.60;;;;;;4984212;28;20537;-72
2022/01/16 13:07:07;;;;;;;2.03;1.35;;;29.50;54.40;;;;;;4989537;28;20043;-72
2022/01/16 13:10:13;;;;;;;3.03;1.27;;;29.50;54.60;;;;;;5004493;28;20049;-73
2022/01/16 13:12:40;;;;;;;7.60;5.72;;;29.50;55.10;;;;;;4991887;28;20026;-73
2022/01/16 13:15:07;;;;;;;7.68;6.85;;;29.60;55.70;;;;;;4987839;28;20018;-71
2022/01/16 13:17:34;;;;;;;7.15;2.63;;;29.60;55.80;;;;;;4989126;28;20022;-71
2022/01/16 13:20:02;;;;;;;10.93;1.60;;;29.60;55.90;;;;;;4989064;28;20022;-72
2022/01/16 13:22:30;;;;;;;3.30;1.17;;;29.60;55.30;;;;;;4991659;28;20065;-71
2022/01/16 13:25:04;;;;;;;1.38;0.60;;;29.70;54.90;;;;;;4982818;28;20121;-72
2022/01/16 13:27:32;;;;;;;1.02;0.80;;;29.60;55.10;;;;;;4990553;28;20014;-70
2022/01/16 13:30:00;;;;;;;1.10;0.80;;;29.60;55.60;;;;;;4988292;28;20022;-71
2022/01/16 13:32:39;;;;;;;5.97;2.22;;;29.60;55.90;;;;;;4988137;28;20050;-70
2022/01/16 13:35:18;;;;;;;14.02;2.85;;;29.60;56.80;;;;;;4987116;28;20406;-70
2022/01/16 13:37:46;;;;;;;15.02;1.83;;;29.60;56.90;;;;;;4987281;28;20061;-70
2022/01/16 13:40:15;;;;;;;6.00;1.52;;;29.60;56.70;;;;;;4995208;28;20041;-70
2022/01/16 13:45:26;;;;;;;1.67;0.75;;;29.70;57.00;;;;;;4991707;28;20030;-70